地図

経路データ

SID SEASON NUMBER BASIN SUBBASIN NAME ISO_TIME NATURE LAT LON WMO_WIND WMO_PRES WMO_AGENCY TRACK_TYPE DIST2LAND LANDFALL IFLAG USA_AGENCY USA_ATCF_ID USA_LAT USA_LON USA_RECORD USA_STATUS USA_WIND USA_PRES USA_SSHS USA_R34_NE USA_R34_SE USA_R34_SW USA_R34_NW USA_R50_NE USA_R50_SE USA_R50_SW USA_R50_NW USA_R64_NE USA_R64_SE USA_R64_SW USA_R64_NW USA_POCI USA_ROCI USA_RMW USA_EYE TOKYO_LAT TOKYO_LON TOKYO_GRADE TOKYO_WIND TOKYO_PRES TOKYO_R50_DIR TOKYO_R50_LONG TOKYO_R50_SHORT TOKYO_R30_DIR TOKYO_R30_LONG TOKYO_R30_SHORT TOKYO_LAND CMA_LAT CMA_LON CMA_CAT CMA_WIND CMA_PRES HKO_LAT HKO_LON HKO_CAT HKO_WIND HKO_PRES NEWDELHI_LAT NEWDELHI_LON NEWDELHI_GRADE NEWDELHI_WIND NEWDELHI_PRES NEWDELHI_CI NEWDELHI_DP NEWDELHI_POCI REUNION_LAT REUNION_LON REUNION_TYPE REUNION_WIND REUNION_PRES REUNION_TNUM REUNION_CI REUNION_RMW REUNION_R34_NE REUNION_R34_SE REUNION_R34_SW REUNION_R34_NW REUNION_R50_NE REUNION_R50_SE REUNION_R50_SW REUNION_R50_NW REUNION_R64_NE REUNION_R64_SE REUNION_R64_SW REUNION_R64_NW BOM_LAT BOM_LON BOM_TYPE BOM_WIND BOM_PRES BOM_TNUM BOM_CI BOM_RMW BOM_R34_NE BOM_R34_SE BOM_R34_SW BOM_R34_NW BOM_R50_NE BOM_R50_SE BOM_R50_SW BOM_R50_NW BOM_R64_NE BOM_R64_SE BOM_R64_SW BOM_R64_NW BOM_ROCI BOM_POCI BOM_EYE BOM_POS_METHOD BOM_PRES_METHOD NADI_LAT NADI_LON NADI_CAT NADI_WIND NADI_PRES WELLINGTON_LAT WELLINGTON_LON WELLINGTON_WIND WELLINGTON_PRES DS824_LAT DS824_LON DS824_STAGE DS824_WIND DS824_PRES TD9636_LAT TD9636_LON TD9636_STAGE TD9636_WIND TD9636_PRES TD9635_LAT TD9635_LON TD9635_WIND TD9635_PRES TD9635_ROCI NEUMANN_LAT NEUMANN_LON NEUMANN_CLASS NEUMANN_WIND NEUMANN_PRES MLC_LAT MLC_LON MLC_CLASS MLC_WIND MLC_PRES USA_GUST BOM_GUST BOM_GUST_PER REUNION_GUST REUNION_GUST_PER USA_SEAHGT USA_SEARAD_NE USA_SEARAD_SE USA_SEARAD_SW USA_SEARAD_NW STORM_SPEED STORM_DIR
1979300N04166 1979 104 WP MM VERA 1979-10-27 00:00:00 NR 4.10000 165.900 main 1510 1497 __________O___ -1 4.10000 165.900 1 13 280
1979300N04166 1979 104 WP MM VERA 1979-10-27 03:00:00 NR 4.20516 165.270 main 1497 1486 __________P___ -1 4.20516 165.270 1 13 279
1979300N04166 1979 104 WP MM VERA 1979-10-27 06:00:00 NR 4.30805 164.653 main 1487 1472 __________P___ -1 4.30805 164.653 1 12 279
1979300N04166 1979 104 WP MM VERA 1979-10-27 09:00:00 NR 4.40690 164.059 main 1472 1456 __________P___ -1 4.40690 164.059 1 12 279
1979300N04166 1979 104 WP MM VERA 1979-10-27 12:00:00 NR 4.50000 163.500 main 1456 1441 __________O___ -1 4.50000 163.500 1 11 279
1979300N04166 1979 104 WP MM VERA 1979-10-27 15:00:00 NR 4.58598 162.983 main 1441 1414 __________P___ -1 4.58598 162.983 1 10 279
1979300N04166 1979 104 WP MM VERA 1979-10-27 18:00:00 NR 4.66462 162.492 main 1417 1385 __________P___ -1 4.66462 162.492 1 10 279
1979300N04166 1979 104 WP MM VERA 1979-10-27 21:00:00 NR 4.73597 162.005 main 1385 1365 __________P___ -1 4.73597 162.005 1 10 278
1979300N04166 1979 104 WP MM VERA 1979-10-28 00:00:00 NR 4.80000 161.500 main 1365 1334 __________O___ -1 4.80000 161.500 1 11 276
1979300N04166 1979 104 WP MM VERA 1979-10-28 03:00:00 NR 4.85726 160.922 main 1335 1298 __________P___ -1 4.85726 160.922 1 12 275
1979300N04166 1979 104 WP MM VERA 1979-10-28 06:00:00 NR 4.90762 160.327 main 1291 1256 __________P___ -1 4.90762 160.327 1 12 275
1979300N04166 1979 104 WP MM VERA 1979-10-28 09:00:00 NR 4.95415 159.744 main 1258 1225 __________P___ -1 4.95415 159.744 1 11 275
1979300N04166 1979 104 WP MM VERA 1979-10-28 12:00:00 NR 5.00000 159.200 main 1225 1191 __________O___ -1 5.00000 159.200 1 10 275
1979300N04166 1979 104 WP MM VERA 1979-10-28 15:00:00 NR 5.04573 158.724 main 1191 1173 __________P___ -1 5.04573 158.724 1 9 276
1979300N04166 1979 104 WP MM VERA 1979-10-28 18:00:00 NR 5.09224 158.290 main 1173 1147 __________P___ -1 5.09224 158.290 1 8 277
1979300N04166 1979 104 WP MM VERA 1979-10-28 21:00:00 NR 5.14265 157.886 main 1147 1131 __________P___ -1 5.14265 157.886 1 8 278
1979300N04166 1979 104 WP MM VERA 1979-10-29 00:00:00 NR 5.20000 157.500 main 1131 1114 __________O___ -1 5.20000 157.500 1 8 279
1979300N04166 1979 104 WP MM VERA 1979-10-29 03:00:00 NR 5.26768 157.115 main 1118 1101 __________P___ -1 5.26768 157.115 1 8 281
1979300N04166 1979 104 WP MM VERA 1979-10-29 06:00:00 NR 5.34232 156.742 main 1095 1087 __________P___ -1 5.34232 156.742 1 8 282
1979300N04166 1979 104 WP MM VERA 1979-10-29 09:00:00 NR 5.42081 156.374 main 1087 1075 __________P___ -1 5.42081 156.374 1 8 282
1979300N04166 1979 104 WP MM VERA 1979-10-29 12:00:00 NR 5.50000 156.000 main 1075 1065 __________O___ -1 5.50000 156.000 1 8 282
1979300N04166 1979 104 WP MM VERA 1979-10-29 15:00:00 NR 5.58310 155.599 main 1066 1050 __________P___ -1 5.58310 155.599 1 8 282
1979300N04166 1979 104 WP MM VERA 1979-10-29 18:00:00 NR 5.66498 155.193 main 1055 1036 __________P___ -1 5.66498 155.193 1 8 281
1979300N04166 1979 104 WP MM VERA 1979-10-29 21:00:00 NR 5.73936 154.790 main 1036 1028 __________P___ -1 5.73936 154.790 1 8 280
1979300N04166 1979 104 WP MM VERA 1979-10-30 00:00:00 NR 5.80000 154.400 main 1028 1016 __________O___ -1 5.80000 154.400 1 7 278
1979300N04166 1979 104 WP MM VERA 1979-10-30 03:00:00 NR 5.83919 154.052 main 1016 1009 __________P___ -1 5.83919 154.052 1 7 275
1979300N04166 1979 104 WP MM VERA 1979-10-30 06:00:00 NR 5.86473 153.715 main 1012 1003 __________P___ -1 5.86473 153.715 1 7 274
1979300N04166 1979 104 WP MM VERA 1979-10-30 09:00:00 NR 5.88292 153.371 main 1003 991 __________P___ -1 5.88292 153.371 1 7 273
1979300N04166 1979 104 WP MM VERA 1979-10-30 12:00:00 NR 5.90000 153.000 main 991 982 __________O___ -1 5.90000 153.000 1 8 273
1979300N04166 1979 104 WP MM VERA 1979-10-30 15:00:00 NR 5.92916 152.558 main 982 974 __________P___ -1 5.92916 152.558 1 9 274
1979300N04166 1979 104 WP MM VERA 1979-10-30 18:00:00 NR 5.95765 152.093 main 984 978 __________P___ -1 5.95765 152.093 1 9 273
1979300N04166 1979 104 WP MM VERA 1979-10-30 21:00:00 NR 5.98229 151.630 main 978 975 __________P___ -1 5.98229 151.630 1 9 273
1979300N04166 1979 104 WP MM VERA 1979-10-31 00:00:00 NR 6.00000 151.200 main 975 974 __________O___ -1 6.00000 151.200 1 8 272
1979300N04166 1979 104 WP MM VERA 1979-10-31 03:00:00 NR 6.00283 150.863 main 974 974 __________P___ -1 6.00283 150.863 1 6 270
1979300N04166 1979 104 WP MM VERA 1979-10-31 06:00:00 NR 5.99959 150.557 main 974 963 __________P___ -1 5.99959 150.557 1 6 269
1979300N04166 1979 104 WP MM VERA 1979-10-31 09:00:00 NR 5.99657 150.248 main 959 949 __________P___ -1 5.99657 150.248 1 7 270
1979300N04166 1979 104 WP MM VERA 1979-10-31 12:00:00 NR 6.00000 149.900 main 949 937 __________O___ -1 6.00000 149.900 1 8 271
1979300N04166 1979 104 WP MM VERA 1979-10-31 15:00:00 NR 6.00584 149.436 main 934 924 __________P___ -1 6.00584 149.436 1 10 271
1979300N04166 1979 104 WP MM VERA 1979-10-31 18:00:00 NR 6.02031 148.935 main 922 917 __________P___ -1 6.02031 148.935 1 10 273
1979300N04166 1979 104 WP MM VERA 1979-10-31 21:00:00 NR 6.04959 148.442 main 914 900 __________P___ -1 6.04959 148.442 1 8 264
1979300N04166 1979 104 WP MM VERA 1979-11-01 00:00:00 TS 5.94000 148.160 main 900 898 __O_______O___ -1 5.30000 148.800 1 23 1004 6.10000 148.000 1 5 262
1979300N04166 1979 104 WP MM VERA 1979-11-01 03:00:00 TS 5.97946 147.917 main 909 908 __P_______P___ -1 5.59009 148.415 1 23 1004 6.17414 147.668 1 5 290
1979300N04166 1979 104 WP MM VERA 1979-11-01 06:00:00 TS 6.11126 147.694 main 919 919 __O_______P___ -1 5.90000 148.100 1 23 1004 6.26971 147.390 1 5 309
1979300N04166 1979 104 WP MM VERA 1979-11-01 09:00:00 TS 6.30519 147.517 main 941 941 __P_______P___ -1 6.22994 147.892 1 23 1004 6.38044 147.142 1 5 321
1979300N04166 1979 104 WP MM VERA 1979-11-01 12:00:00 TS 6.46667 147.411 1006 tokyo main 963 963 _OO_______O___ -1 6.20000 148.300 2 1006 0 0 0 6.50000 147.700 1 23 1004 6.50000 146.900 1 4 311
1979300N04166 1979 104 WP MM VERA 1979-11-01 15:00:00 TS 6.58688 147.187 main 974 974 _PP_______P___ -1 6.40010 147.713 2 1005 0 0 6.63746 147.437 1 23 1003 6.62971 146.674 1 6 293
1979300N04166 1979 104 WP MM VERA 1979-11-01 18:00:00 TS 6.69619 146.860 1004 tokyo main 986 986 _OO_______P___ -1 6.60000 147.100 2 1004 0 0 0 6.70000 147.100 1 23 1002 6.76452 146.440 1 8 287
1979300N04166 1979 104 WP MM VERA 1979-11-01 21:00:00 TS 6.80898 146.440 main 997 997 _PP_______P___ -1 6.79997 146.450 2 1004 0 0 6.73489 146.710 1 26 1001 6.89209 146.161 1 10 285
1979300N04166 1979 104 WP MM VERA 1979-11-02 00:00:00 TS 6.94667 145.920 1004 tokyo main 1011 1011 OOOO_____OO___ jtwc_wp WP241979 7.00000 145.800 25 -1 7.00000 145.800 2 1004 0 0 0 6.80000 146.200 1 29 1000 7.00000 146.000 TD 30 1004 7.00000 145.800 TC 25 7.00000 145.800 2 55 11 287
1979300N04166 1979 104 WP MM VERA 1979-11-02 03:00:00 TS 7.13386 145.338 main 1041 1041 PPPP_____PP___ WP241979 7.27513 145.258 40 0 7.20733 145.207 2 999 0 0 6.99261 145.523 1 33 999 7.16008 145.423 TD 37 979 7.27513 145.258 TC 40 7.04728 145.323 2 56 12 286
1979300N04166 1979 104 WP MM VERA 1979-11-02 06:00:00 TS 7.28621 144.726 35 994 tokyo main 1074 1074 OOOO_____OP___ jtwc_wp WP241979 7.40000 144.700 55 0 7.40000 144.600 3 35 994 0 9 100 100 0 7.20000 144.800 2 38 998 7.30000 144.800 TS 45 955 7.40000 144.700 TC 55 7.07758 144.762 2 57 12 279
1979300N04166 1979 104 WP MM VERA 1979-11-02 09:00:00 TS 7.32931 144.108 main 1089 1089 PPPP_____PP___ WP241979 7.29992 144.115 57 0 7.54966 143.967 3 45 989 0 9 112 112 7.29980 144.200 2 43 996 7.40749 144.107 TS 47 972 7.29992 144.115 TC 57 7.11907 144.145 2 58 13 274
1979300N04166 1979 104 WP MM VERA 1979-11-02 12:00:00 TS 7.36667 143.450 55 985 tokyo main 1118 1118 OOOO_____OO___ jtwc_wp WP241979 7.20000 143.500 60 0 7.70000 143.200 4 55 985 9 40 40 9 125 125 0 7.40000 143.600 3 48 994 7.50000 143.400 STS 50 990 7.20000 143.500 TC 60 7.20000 143.500 2 60 14 278
1979300N04166 1979 104 WP MM VERA 1979-11-02 15:00:00 TS 7.52131 142.732 main 1132 1126 PPPP_____PP___ WP241979 7.35494 142.858 60 0 7.90072 142.090 4 55 982 9 40 40 9 125 125 7.58488 142.930 3 48 992 7.59240 142.735 STS 50 990 7.35494 142.858 TC 60 7.33995 142.920 2 61 15 284
1979300N04166 1979 104 WP MM VERA 1979-11-02 18:00:00 TS 7.72065 142.019 55 980 tokyo main 1124 1118 OOOO_____OP___ jtwc_wp WP241979 7.60000 142.200 60 0 8.10000 141.100 4 55 980 9 40 40 9 125 125 0 7.80000 142.200 3 48 990 7.70000 142.100 STS 50 990 7.60000 142.200 TC 60 7.52390 142.312 2 62 14 286
1979300N04166 1979 104 WP MM VERA 1979-11-02 21:00:00 TS 7.89736 141.423 main 1122 1118 PPPP_____PP___ WP241979 7.78466 141.595 62 0 8.25682 140.747 4 55 980 9 40 40 9 125 102 7.99243 141.415 3 53 987 7.81966 141.537 STS 52 987 7.78466 141.595 TC 62 7.74594 141.648 2 63 13 287
1979300N04166 1979 104 WP MM VERA 1979-11-03 00:00:00 TS 8.10000 140.783 55 980 tokyo main 1124 1116 OOOO_____OO___ jtwc_wp WP241979 8.00000 140.900 65 1 8.40000 140.500 4 55 980 9 40 40 8 125 80 0 8.20000 140.600 3 58 985 8.00000 140.900 STS 55 985 8.00000 140.900 TC 65 8.00000 140.900 4 65 15 287
1979300N04166 1979 104 WP MM VERA 1979-11-03 03:00:00 TS 8.35116 139.967 main 1126 1111 PPPP_____PP___ WP241979 8.28506 139.995 67 1 8.54245 139.890 4 55 980 9 40 40 8 125 80 8.44219 139.822 3 58 985 8.28502 140.053 STS 57 985 8.28506 139.995 TC 67 8.26720 140.048 4 72 18 287
1979300N04166 1979 104 WP MM VERA 1979-11-03 06:00:00 TS 8.62707 139.052 55 980 tokyo main 1111 1104 OOOO_____OP___ jtwc_wp WP241979 8.60000 139.000 70 1 8.70000 139.100 4 55 980 9 40 40 8 125 80 0 8.70000 139.000 3 58 985 8.60000 139.100 STS 60 985 8.60000 139.000 TC 70 8.56243 139.112 4 80 19 286
1979300N04166 1979 104 WP MM VERA 1979-11-03 09:00:00 TS 8.88083 138.127 main 1110 1105 PPPP_____PP___ WP241979 8.88470 138.057 82 1 8.85469 138.267 4 60 977 9 40 40 8 137 115 8.94230 138.087 3 63 977 8.84220 138.172 STS 60 980 8.88470 138.057 TC 82 8.87636 138.120 4 87 20 286
1979300N04166 1979 104 WP MM VERA 1979-11-03 12:00:00 TS 9.16667 137.150 65 975 tokyo main 1123 1075 OOOO_____OO___ jtwc_wp WP241979 9.20000 137.100 95 2 9.10000 137.300 5 65 975 9 40 40 9 150 150 0 9.20000 137.100 4 68 970 9.10000 137.200 STS 60 975 9.20000 137.100 TC 95 9.20000 137.100 4 95 21 288
1979300N04166 1979 104 WP MM VERA 1979-11-03 15:00:00 TS 9.53627 136.113 main 1064 966 PPPP_____PP___ WP241979 9.60721 136.115 112 3 9.54275 136.158 5 72 965 9 50 50 9 175 175 9.49995 136.050 4 72 965 9.43489 136.157 STS 67 967 9.60721 136.115 TC 112 9.52559 136.084 4 105 22 290
1979300N04166 1979 104 WP MM VERA 1979-11-03 18:00:00 TS 9.90951 135.058 80 955 tokyo main 966 870 OOOO_____OP___ jtwc_wp WP241979 10.0000 135.100 130 4 10.0000 135.000 5 80 955 9 60 60 9 200 200 0 9.80000 135.000 4 77 960 9.80000 135.100 T 75 960 10.0000 135.100 TC 130 9.85706 135.050 4 115 22 288
1979300N04166 1979 104 WP MM VERA 1979-11-03 21:00:00 TS 10.1989 134.041 main 859 769 PPPP_____PP___ WP241979 10.2648 134.050 132 4 10.2794 134.020 5 87 947 9 92 60 9 225 175 10.0422 134.027 4 87 950 10.1572 134.085 T 92 947 10.2648 134.050 TC 132 10.1849 134.015 4 125 21 286
1979300N04166 1979 104 WP MM VERA 1979-11-04 00:00:00 TS 10.4667 133.050 95 940 tokyo main 769 668 OOOO_____OO___ jtwc_wp WP241979 10.5000 133.000 135 4 10.5000 133.100 5 95 940 1 125 60 1 250 150 0 10.3000 133.100 5 97 940 10.5000 133.100 SuperT 110 935 10.5000 133.000 TC 135 10.5000 133.000 4 135 20 286
1979300N04166 1979 104 WP MM VERA 1979-11-04 03:00:00 TS 10.7633 132.076 main 670 583 PPPP_____PP___ WP241979 10.7997 131.978 137 5 10.7423 132.135 5 97 935 1 125 60 1 250 150 10.6420 132.207 5 101 935 10.8071 132.150 SuperT 110 927 10.7997 131.978 TC 137 10.7886 132.008 4 136 20 287
1979300N04166 1979 104 WP MM VERA 1979-11-04 06:00:00 TS 11.0607 131.123 100 930 tokyo main 577 481 OOOO_____OP___ jtwc_wp WP241979 11.1000 131.000 140 5 11.0000 131.200 5 100 930 1 125 60 1 250 150 0 11.0000 131.300 6 106 930 11.1000 131.200 SuperT 110 920 11.1000 131.000 TC 140 11.0640 131.039 4 137 20 287
1979300N04166 1979 104 WP MM VERA 1979-11-04 09:00:00 TS 11.3498 130.174 main 481 387 PPPP_____PP___ WP241979 11.3648 130.062 140 5 11.2995 130.350 5 102 925 1 125 60 1 250 150 11.3225 130.293 6 111 925 11.4150 130.178 SuperT 110 917 11.3648 130.062 TC 140 11.3325 130.101 4 138 19 287
1979300N04166 1979 104 WP MM VERA 1979-11-04 12:00:00 TS 11.6167 129.267 105 920 tokyo main 387 307 OOOO_____OO___ jtwc_wp WP241979 11.6000 129.200 140 5 11.6000 129.500 5 105 920 1 125 60 1 250 150 0 11.6000 129.300 6 116 920 11.7000 129.200 SuperT 110 915 11.6000 129.200 TC 140 11.6000 129.200 4 140 18 286
1979300N04166 1979 104 WP MM VERA 1979-11-04 15:00:00 TS 11.8288 128.414 main 297 225 PPPP_____PP___ WP241979 11.7844 128.450 137 5 11.8576 128.535 5 107 917 1 125 60 1 250 150 11.7922 128.405 6 116 917 11.8995 128.370 SuperT 110 915 11.7844 128.450 TC 137 11.8545 128.278 4 138 17 285
1979300N04166 1979 104 WP MM VERA 1979-11-04 18:00:00 TS 12.0521 127.600 110 915 tokyo main 228 141 OOOO_____OP___ jtwc_wp WP241979 12.0000 127.700 135 4 12.1000 127.600 5 110 915 1 125 60 1 250 150 0 12.0000 127.600 6 116 915 12.1000 127.600 SuperT 110 915 12.0000 127.700 TC 135 12.1125 127.400 4 137 17 288
1979300N04166 1979 104 WP MM VERA 1979-11-04 21:00:00 TS 12.3437 126.759 main 141 78 PPPP_____PP___ WP241979 12.3279 126.763 135 4 12.3272 126.790 5 107 917 1 125 60 1 250 150 12.3197 126.870 6 116 917 12.3700 126.770 SuperT 110 917 12.3279 126.763 TC 135 12.3892 126.597 4 136 17 292
1979300N04166 1979 104 WP MM VERA 1979-11-05 00:00:00 TS 12.6833 126.000 105 920 tokyo main 78 55 OOOO_____OO___ jtwc_wp WP241979 12.7000 125.900 135 4 12.6000 126.100 5 105 920 1 125 60 1 250 150 0 12.7000 126.200 6 116 920 12.7000 126.000 SuperT 110 920 12.7000 125.900 TC 135 12.7000 125.900 4 135 15 298
1979300N04166 1979 104 WP MM VERA 1979-11-05 03:00:00 TS 13.0529 125.388 main 70 63 PPPP_____PP___ WP241979 13.0345 125.325 135 4 12.9848 125.498 5 105 920 1 122 90 1 237 150 13.0850 125.512 6 116 920 13.0998 125.340 SuperT 105 920 13.0345 125.325 TC 135 13.0790 125.326 4 130 13 305
1979300N04166 1979 104 WP MM VERA 1979-11-05 06:00:00 TS 13.4485 124.893 105 920 tokyo main 63 10 OOOO_____OP___ jtwc_wp WP241979 13.4000 124.900 135 4 13.4000 125.000 5 105 920 9 120 120 1 225 150 0 13.5000 124.900 6 116 920 13.5000 124.800 SuperT 100 920 13.4000 124.900 TC 135 13.4909 124.857 4 125 12 312
1979300N04166 1979 104 WP MM VERA 1979-11-05 09:00:00 TS 13.8611 124.451 main 10 0 PPPP_____PP___ WP241979 13.8649 124.470 125 4 13.7574 124.555 5 102 925 9 120 120 1 225 150 13.9723 124.398 6 111 922 13.7998 124.355 SuperT 100 925 13.8649 124.470 TC 125 13.9075 124.460 4 120 11 316
1979300N04166 1979 104 WP MM VERA 1979-11-05 12:00:00 TS 14.2500 124.083 100 930 tokyo main 33 33 OOOO_____OO___ jtwc_wp WP241979 14.3000 124.100 115 4 14.1000 124.200 5 100 930 9 120 120 1 225 150 0 14.4000 124.000 6 106 925 14.1000 124.000 SuperT 100 930 14.3000 124.100 TC 115 14.3000 124.100 4 115 10 316
1979300N04166 1979 104 WP MM VERA 1979-11-05 15:00:00 TS 14.5614 123.765 main 74 74 PPPP_____PP___ WP241979 14.5648 123.800 105 3 14.4498 123.950 5 97 932 9 120 90 1 225 150 14.6724 123.677 6 101 930 14.4999 123.670 SuperT 100 932 14.5648 123.800 TC 105 14.6164 123.692 4 110 8 315
1979300N04166 1979 104 WP MM VERA 1979-11-05 18:00:00 TS 14.8512 123.470 95 935 tokyo main 101 95 OOOO_____OP___ jtwc_wp WP241979 14.8000 123.500 95 2 14.8000 123.700 5 95 935 1 120 60 1 225 150 0 14.9000 123.400 5 97 935 14.9000 123.400 SuperT 100 935 14.8000 123.500 TC 95 14.9074 123.317 4 105 9 314
1979300N04166 1979 104 WP MM VERA 1979-11-05 21:00:00 TS 15.1629 123.123 main 113 100 PPPP_____PP___ WP241979 15.1276 123.085 95 2 15.1501 123.300 5 92 937 1 97 67 1 212 150 15.1775 123.085 5 92 939 15.1999 123.200 SuperT 92 940 15.1276 123.085 TC 95 15.1946 122.983 4 100 9 315
1979300N04166 1979 104 WP MM VERA 1979-11-06 00:00:00 TS 15.5000 122.800 90 940 tokyo main 100 54 OOOO_____OO___ jtwc_wp WP241979 15.5000 122.700 95 2 15.5000 122.900 5 90 940 9 75 75 1 200 150 0 15.5000 122.800 5 87 943 15.5000 123.000 ST 85 945 15.5000 122.700 TC 95 15.5000 122.700 4 95 9 322
1979300N04166 1979 104 WP MM VERA 1979-11-06 03:00:00 TS 15.8848 122.541 main 46 21 PPPP_____PP___ WP241979 15.8999 122.447 92 2 15.8424 122.620 5 87 945 9 75 75 1 200 150 15.9000 122.570 5 82 946 15.8851 122.685 ST 82 952 15.8999 122.447 TC 92 15.8815 122.478 4 91 9 331
1979300N04166 1979 104 WP MM VERA 1979-11-06 06:00:00 TS 16.2799 122.351 85 950 tokyo main 21 0 OOOO_____OP___ jtwc_wp WP241979 16.3000 122.300 90 2 16.2000 122.400 5 85 950 9 75 75 1 200 150 0 16.3000 122.400 4 77 950 16.3000 122.400 T 80 960 16.3000 122.300 TC 90 16.2795 122.305 4 87 8 339
1979300N04166 1979 104 WP MM VERA 1979-11-06 09:00:00 TS 16.6488 122.237 main 0 0 PPPP_____PP___ WP241979 16.6649 122.257 85 2 16.6000 122.185 5 80 955 9 62 62 1 200 150 16.5925 122.292 4 72 960 16.7074 122.277 T 80 965 16.6649 122.257 TC 85 16.6628 122.154 4 83 8 344
1979300N04166 1979 104 WP MM VERA 1979-11-06 12:00:00 TS 17.0000 122.133 75 960 tokyo main 0 0 OOOO_____OO___ jtwc_wp WP241979 17.0000 122.200 80 1 17.0000 122.000 5 75 960 9 50 50 1 200 150 0 16.9000 122.200 4 68 970 17.1000 122.200 T 80 970 17.0000 122.200 TC 80 17.0000 122.000 4 80 8 341
1979300N04166 1979 104 WP MM VERA 1979-11-06 15:00:00 TS 17.3715 121.979 main 0 0 PPPP_____PP___ WP241979 17.3375 121.980 62 0 17.3949 121.872 5 70 970 9 50 50 1 187 137 17.3425 122.028 4 58 980 17.5023 122.102 T 77 975 17.3375 121.980 TC 62 17.3139 121.909 4 70 8 334
1979300N04166 1979 104 WP MM VERA 1979-11-06 18:00:00 TS 17.6783 121.783 65 980 tokyo main 0 0 OOOO_____OP___ jtwc_wp WP241979 17.6000 121.700 45 0 17.7000 121.700 5 65 980 9 50 50 1 175 125 0 17.8000 121.900 3 48 990 17.8000 121.900 T 75 980 17.6000 121.700 TC 45 17.5700 121.796 4 60 6 320
1979300N04166 1979 104 WP MM VERA 1979-11-06 21:00:00 TS 17.8510 121.564 main 0 0 PPPP_____PP___ WP241979 17.7073 121.487 42 0 17.8600 121.395 5 57 985 9 1 162 137 18.1575 121.927 3 43 992 17.9326 121.503 T 65 985 17.7073 121.487 TC 42 17.7412 121.585 4 50 6 283
1979300N04166 1979 104 WP MM VERA 1979-11-07 00:00:00 TS 17.8087 121.191 50 990 tokyo main 0 0 OOOO_____OO___ jtwc_wp WP241979 17.8000 121.200 40 0 17.9000 121.000 4 50 990 0 9 150 150 0 18.5000 122.000 2 38 995 17.9000 121.000 STS 55 990 17.8000 121.200 TC 40 17.8000 121.200 2 40 8 268
1979300N04166 1979 104 WP MM VERA 1979-11-07 03:00:00 TS 17.8280 120.692 main 0 0 PPPP_____PP___ WP241979 18.1615 120.837 37 0 17.8726 120.542 4 42 993 0 9 100 100 18.8850 122.020 2 33 997 17.7352 120.495 STS 42 995 18.1615 120.837 TC 37 17.7282 120.590 2 37 11 264
1979300N04166 1979 104 WP MM VERA 1979-11-07 06:00:00 TS 17.6914 119.999 35 996 tokyo main 33 33 OOOO_____OP___ jtwc_wp WP241979 18.3000 120.200 35 0 17.8000 120.100 3 35 996 0 9 50 50 0 19.3000 122.000 1 29 1000 17.5000 120.000 TD 30 1000 18.3000 120.200 TC 35 17.5484 119.794 2 35 16 250
1979300N04166 1979 104 WP MM VERA 1979-11-07 09:00:00 TS 17.2762 119.138 main 131 125 PP_______PP___ WP241979 17.8400 119.163 32 -1 17.7498 119.793 3 998 0 9 1 TD 17.8400 119.163 TC 32 17.2942 118.876 2 32 15 243
1979300N04166 1979 104 WP MM VERA 1979-11-07 12:00:00 TS 17.0364 118.627 1000 tokyo main 149 149 OO_______OO___ jtwc_wp WP241979 17.0000 117.900 30 -1 17.7000 119.500 2 1000 0 0 0 17.0000 117.900 TC 30 17.0000 117.900 1 30 5 252
1979300N04166 1979 104 WP MM VERA 1979-11-07 15:00:00 TS 17.1175 118.639 main 156 156 _P____________ WP241979 -1 17.6500 119.108 2 1000 0 0 TC 1 3 307
1979300N04166 1979 104 WP MM VERA 1979-11-07 18:00:00 TS 17.2000 118.400 1000 tokyo main 179 179 _O____________ -1 17.6000 118.700 2 1000 0 0 0 1 5 297
1979300N04166 1979 104 WP MM VERA 1979-11-07 21:00:00 TS 17.3360 118.188 main 203 203 _P____________ -1 17.5423 118.365 2 1002 0 0 1 5 296
1979300N04166 1979 104 WP MM VERA 1979-11-08 00:00:00 TS 17.4429 117.886 1004 tokyo main 236 236 _O____________ -1 17.5000 118.000 2 1004 0 0 0 8 280
1979300N04166 1979 104 WP MM VERA 1979-11-08 03:00:00 TS 17.4702 117.412 main 288 288 _P____________ -1 17.4904 117.533 2 1004 0 0 10 269
1979300N04166 1979 104 WP MM VERA 1979-11-08 06:00:00 TS 17.4200 116.840 1004 tokyo main 342 342 _O____________ -1 17.5000 117.000 2 1004 0 0 0 11 263
1979300N04166 1979 104 WP MM VERA 1979-11-08 09:00:00 TS 17.3300 116.285 main 389 389 ______________ -1 2 0 0 10 258
1979300N04166 1979 104 WP MM VERA 1979-11-08 12:00:00 TS 17.2000 115.800 main 436 436 ______________ -1 9 250
1979300N04166 1979 104 WP MM VERA 1979-11-08 15:00:00 TS 17.0149 115.378 main 472 472 ______________ -1 9 242
1979300N04166 1979 104 WP MM VERA 1979-11-08 18:00:00 TS 16.8000 115.000 main 509 499 ______________ -1 8 240
1979300N04166 1979 104 WP MM VERA 1979-11-08 21:00:00 TS 16.5925 114.628 main 499 484 ______________ -1 8 239
1979300N04166 1979 104 WP MM VERA 1979-11-09 00:00:00 TS 16.4000 114.300 main 484 464 ______________ -1 7 240
1979300N04166 1979 104 WP MM VERA 1979-11-09 03:00:00 TS 16.2500 114.020 main 471 462 ______________ -1 6 238
1979300N04166 1979 104 WP MM VERA 1979-11-09 06:00:00 TS 16.1000 113.800 main 462 454 ______________ -1 5 228
1979300N04166 1979 104 WP MM VERA 1979-11-09 09:00:00 TS 15.9075 113.628 main 462 462 ______________ -1 5 216
1979300N04166 1979 104 WP MM VERA 1979-11-09 12:00:00 TS 15.7000 113.500 main 470 470 ______________ -1 5 210
1979300N04166 1979 104 WP MM VERA 1979-11-09 15:00:00 TS 15.5000 113.385 main 470 456 ______________ -1 4 206
1979300N04166 1979 104 WP MM VERA 1979-11-09 18:00:00 TS 15.3000 113.300 main 456 440 ______________ -1 4 203
1979300N04166 1979 104 WP MM VERA 1979-11-09 21:00:00 TS 15.1300 113.220 main 440 434 ______________ -1 4 193
1979300N04166 1979 104 WP MM VERA 1979-11-10 00:00:00 TS 14.9000 113.200 main 434 425 ______________ -1 6 178
1979300N04166 1979 104 WP MM VERA 1979-11-10 03:00:00 TS 14.5149 113.247 main 425 425 ______________ -1 8 166
1979300N04166 1979 104 WP MM VERA 1979-11-10 06:00:00 TS 14.1000 113.400 main 442 439 ______________ -1 9 151
1979300N04166 1979 104 WP MM VERA 1979-11-10 09:00:00 TS 13.7701 113.668 main 465 463 ______________ -1 8 136
1979300N04166 1979 104 WP MM VERA 1979-11-10 12:00:00 TS 13.5000 114.000 main 492 ______________ -1 8 130

デジタル台風データ・検索

IBTrACS Databaseについて

本データベースは、米国NOAAが公開する1842年以降の世界の熱帯低気圧のベストトラックデータアーカイブInternational Best Track Archive for Climate Stewardship (IBTrACS)を、ウェブで閲覧しやすい形式に変換したものです。

最終更新日:2021-10-08